Time;durP1;ratioP1;P1;durP2;ratioP2;P2;SDS_P1;SDS_P2;PMS_P1;PMS_P2;Temp;Humidity;BMP_temperature;BMP_pressure;BME280_temperature;BME280_humidity;BME280_pressure;Samples;Min_cycle;Max_cycle;Signal;HPM_P1;HPM_P2
2023/09/15 00:02:30;;;;;;;6.18;5.57;;;23.80;99.90;;;;;;6226849;28;89140;-73
2023/09/15 00:05:33;;;;;;;6.63;6.03;;;23.80;99.90;;;;;;6219663;28;89207;-72
2023/09/15 00:08:35;;;;;;;6.50;6.00;;;23.80;99.90;;;;;;6229624;28;88058;-72
2023/09/15 00:11:40;;;;;;;5.95;5.35;;;23.70;99.90;;;;;;6223175;28;89152;-73
2023/09/15 00:14:42;;;;;;;5.90;5.30;;;23.80;99.90;;;;;;6217481;28;89493;-72
2023/09/15 00:17:45;;;;;;;6.13;5.53;;;23.80;99.90;;;;;;6229349;28;89437;-71
2023/09/15 00:20:47;;;;;;;5.75;5.20;;;23.70;99.90;;;;;;6229793;28;88286;-71
2023/09/15 00:23:50;;;;;;;5.43;4.93;;;23.70;99.90;;;;;;6230212;28;89081;-71
2023/09/15 00:26:53;;;;;;;6.22;5.63;;;23.70;99.90;;;;;;6230065;28;89542;-72
2023/09/15 00:29:55;;;;;;;6.28;5.30;;;23.80;99.90;;;;;;6221391;28;90031;-71
2023/09/15 00:32:58;;;;;;;5.95;5.13;;;23.80;99.90;;;;;;6230637;28;88031;-71
2023/09/15 00:36:01;;;;;;;6.30;5.38;;;23.70;99.90;;;;;;6230395;28;89058;-72
2023/09/15 00:39:03;;;;;;;5.30;4.75;;;23.70;99.90;;;;;;6229881;28;89032;-72
2023/09/15 00:42:07;;;;;;;5.70;5.20;;;23.70;99.90;;;;;;6229792;28;89000;-72
2023/09/15 00:45:14;;;;;;;7.10;5.85;;;23.70;99.90;;;;;;6231327;28;89174;-73
2023/09/15 00:48:17;;;;;;;5.72;4.68;;;23.70;99.90;;;;;;6222919;28;88975;-72
2023/09/15 00:51:21;;;;;;;7.20;5.88;;;23.70;99.90;;;;;;6227790;28;88382;-72
2023/09/15 00:54:23;;;;;;;5.60;5.10;;;23.70;99.90;;;;;;6231209;28;89330;-72
2023/09/15 00:57:27;;;;;;;5.45;4.95;;;23.60;99.90;;;;;;6227656;28;89056;-71
2023/09/15 01:00:30;;;;;;;6.25;5.03;;;23.60;99.90;;;;;;6230190;28;88876;-71
2023/09/15 01:03:32;;;;;;;5.50;5.00;;;23.60;99.90;;;;;;6230836;28;89057;-71
2023/09/15 01:06:37;;;;;;;5.22;4.72;;;23.60;99.90;;;;;;6225765;28;89135;-71
2023/09/15 01:09:39;;;;;;;5.13;4.70;;;23.60;99.90;;;;;;6232967;28;89042;-71
2023/09/15 01:12:43;;;;;;;5.28;4.78;;;23.60;99.90;;;;;;6229421;28;89313;-71
2023/09/15 01:15:52;;;;;;;5.50;4.65;;;23.60;99.90;;;;;;6224167;28;87974;-71
2023/09/15 01:19:06;;;;;;;5.47;4.97;;;23.60;99.90;;;;;;6229974;28;89274;-71
2023/09/15 01:22:29;;;;;;;5.47;4.75;;;23.60;99.90;;;;;;6216397;28;88359;-72
2023/09/15 01:25:56;;;;;;;5.65;4.90;;;23.60;99.90;;;;;;6225618;28;89009;-71
2023/09/15 01:29:37;;;;;;;5.68;5.10;;;23.60;99.90;;;;;;6225852;28;89134;-71
2023/09/15 01:32:41;;;;;;;6.18;4.75;;;23.60;99.90;;;;;;6227837;28;90292;-71
2023/09/15 01:35:43;;;;;;;5.22;4.72;;;23.60;99.90;;;;;;6234151;28;87970;-72
2023/09/15 01:38:45;;;;;;;7.55;5.45;;;23.50;99.90;;;;;;6221432;28;89050;-72
2023/09/15 01:41:47;;;;;;;5.15;4.65;;;23.50;99.90;;;;;;6225290;28;89483;-74
2023/09/15 01:44:50;;;;;;;4.93;4.43;;;23.50;99.90;;;;;;6220651;28;89036;-73
2023/09/15 01:47:53;;;;;;;5.35;4.85;;;23.50;99.90;;;;;;6232508;28;89132;-72
2023/09/15 01:50:57;;;;;;;5.30;4.78;;;23.40;99.90;;;;;;6232732;28;88950;-72
2023/09/15 01:53:59;;;;;;;4.57;4.18;;;23.50;99.90;;;;;;6227766;28;88610;-71
2023/09/15 01:57:02;;;;;;;5.22;4.72;;;23.50;99.90;;;;;;6230392;28;89051;-71
2023/09/15 02:00:07;;;;;;;4.80;4.40;;;23.40;99.90;;;;;;6230502;28;89151;-71
2023/09/15 02:03:09;;;;;;;5.28;4.78;;;23.50;99.90;;;;;;6230930;28;90484;-72
2023/09/15 02:06:16;;;;;;;5.10;4.60;;;23.50;99.90;;;;;;6228206;28;88327;-72
2023/09/15 02:09:19;;;;;;;6.32;4.88;;;23.50;99.90;;;;;;6231114;28;89076;-73
2023/09/15 02:12:21;;;;;;;5.55;4.70;;;23.50;99.90;;;;;;6226911;28;89065;-72
2023/09/15 02:15:25;;;;;;;5.50;4.90;;;23.40;99.90;;;;;;6226689;28;87939;-73
2023/09/15 02:18:27;;;;;;;5.70;4.63;;;23.50;99.90;;;;;;6229709;28;89241;-72
2023/09/15 02:21:29;;;;;;;5.30;4.57;;;23.40;99.90;;;;;;6227758;28;87930;-71
2023/09/15 02:24:31;;;;;;;6.63;4.90;;;23.50;99.90;;;;;;6223879;28;89104;-71
2023/09/15 02:27:33;;;;;;;5.70;4.63;;;23.50;99.90;;;;;;6221312;28;89073;-72
2023/09/15 02:30:38;;;;;;;5.78;4.68;;;23.50;99.90;;;;;;6186947;28;89217;-71
2023/09/15 02:33:40;;;;;;;5.45;4.70;;;23.50;99.90;;;;;;6226814;28;90339;-72
2023/09/15 02:36:43;;;;;;;5.18;4.60;;;23.50;99.90;;;;;;6226480;28;89429;-72
2023/09/15 02:39:45;;;;;;;6.65;4.70;;;23.50;99.90;;;;;;6220816;28;89201;-72
2023/09/15 02:42:47;;;;;;;6.80;4.90;;;23.50;99.90;;;;;;6228007;28;89443;-72
2023/09/15 02:45:50;;;;;;;4.85;4.32;;;23.50;99.90;;;;;;6228536;28;89294;-72
2023/09/15 02:48:53;;;;;;;4.90;4.50;;;23.50;99.90;;;;;;6225158;28;89125;-72
2023/09/15 02:51:57;;;;;;;6.38;5.10;;;23.50;99.90;;;;;;6224164;28;89093;-72
2023/09/15 02:54:58;;;;;;;6.30;5.28;;;23.50;99.90;;;;;;6229026;28;87230;-71
2023/09/15 02:58:00;;;;;;;5.68;4.82;;;23.50;99.90;;;;;;6224980;28;88963;-71
2023/09/15 03:01:12;;;;;;;4.88;4.43;;;23.50;99.90;;;;;;6226471;28;89508;-71
2023/09/15 03:04:14;;;;;;;6.20;5.03;;;23.50;99.90;;;;;;6222000;28;90014;-75
2023/09/15 03:07:17;;;;;;;6.70;5.32;;;23.50;99.90;;;;;;6220145;28;89177;-75
2023/09/15 03:10:19;;;;;;;5.22;4.63;;;23.50;99.90;;;;;;6224420;28;89118;-72
2023/09/15 03:13:21;;;;;;;5.38;4.65;;;23.50;99.90;;;;;;6229453;28;88589;-73
2023/09/15 03:16:26;;;;;;;5.00;4.60;;;23.40;99.90;;;;;;6232624;28;89056;-72
2023/09/15 03:19:27;;;;;;;6.10;4.80;;;23.40;99.90;;;;;;6231212;28;89154;-72
2023/09/15 03:22:29;;;;;;;6.20;5.20;;;23.40;99.90;;;;;;6229136;28;89087;-72
2023/09/15 03:25:31;;;;;;;5.18;4.35;;;23.40;99.90;;;;;;6233224;28;87371;-73
2023/09/15 03:28:35;;;;;;;4.82;4.43;;;23.40;99.90;;;;;;6225677;28;89243;-72
2023/09/15 03:31:39;;;;;;;5.03;4.53;;;23.40;99.90;;;;;;6229889;28;89066;-71
2023/09/15 03:34:41;;;;;;;7.22;4.88;;;23.40;99.90;;;;;;6230010;28;90054;-71
2023/09/15 03:37:43;;;;;;;5.47;4.38;;;23.40;99.90;;;;;;6231033;28;89325;-71
2023/09/15 03:40:45;;;;;;;5.07;4.43;;;23.40;99.90;;;;;;6233171;28;88116;-71
2023/09/15 03:43:47;;;;;;;5.15;4.25;;;23.40;99.90;;;;;;6231194;28;87985;-72
2023/09/15 03:46:50;;;;;;;4.70;4.30;;;23.40;99.90;;;;;;6230940;28;89412;-72
2023/09/15 03:49:52;;;;;;;4.97;4.40;;;23.40;99.90;;;;;;6230538;28;89108;-73
2023/09/15 03:52:55;;;;;;;4.97;4.57;;;23.40;99.90;;;;;;6230875;28;89442;-74
2023/09/15 03:55:57;;;;;;;4.55;4.15;;;23.40;99.90;;;;;;6230864;28;88666;-74
2023/09/15 03:58:58;;;;;;;5.35;3.85;;;23.40;99.90;;;;;;6231211;28;88983;-73
2023/09/15 04:02:03;;;;;;;4.18;3.78;;;23.40;99.90;;;;;;6231343;28;88961;-72
2023/09/15 04:05:06;;;;;;;4.10;3.80;;;23.30;99.90;;;;;;6218813;28;89191;-72
2023/09/15 04:08:08;;;;;;;4.05;3.65;;;23.40;99.90;;;;;;6229909;28;88311;-73
2023/09/15 04:11:10;;;;;;;4.95;3.70;;;23.30;99.90;;;;;;6227749;28;89003;-72
2023/09/15 04:14:12;;;;;;;4.65;3.80;;;23.30;99.90;;;;;;6221761;28;89802;-71
2023/09/15 04:17:15;;;;;;;5.57;3.92;;;23.30;99.90;;;;;;6225338;28;89037;-73
2023/09/15 04:20:17;;;;;;;5.20;3.90;;;23.30;99.90;;;;;;6226114;28;89473;-70
2023/09/15 04:23:19;;;;;;;6.22;4.10;;;23.30;99.90;;;;;;6228451;28;89109;-69
2023/09/15 04:26:21;;;;;;;7.60;6.85;;;23.30;99.90;;;;;;6230076;28;88411;-70
2023/09/15 04:29:23;;;;;;;10.52;9.65;;;23.30;99.90;;;;;;6222770;28;88945;-70
2023/09/15 04:32:27;;;;;;;19.17;17.80;;;23.30;99.90;;;;;;6225951;28;89110;-71
2023/09/15 04:35:29;;;;;;;20.38;18.80;;;23.30;99.90;;;;;;6227900;28;90107;-70
2023/09/15 04:38:32;;;;;;;26.60;24.77;;;23.30;99.90;;;;;;6230693;28;89048;-69
2023/09/15 04:41:34;;;;;;;31.48;29.13;;;23.40;99.90;;;;;;6218383;28;91778;-71
2023/09/15 04:44:36;;;;;;;25.98;24.27;;;23.40;99.90;;;;;;6223022;28;89392;-71
2023/09/15 04:47:41;;;;;;;19.33;18.02;;;23.40;99.90;;;;;;6227313;28;89215;-71
2023/09/15 04:50:43;;;;;;;13.73;12.60;;;23.40;99.90;;;;;;6228095;28;88900;-71
2023/09/15 04:53:45;;;;;;;11.52;10.63;;;23.50;99.90;;;;;;6228994;28;89096;-69
2023/09/15 04:56:50;;;;;;;12.27;11.15;;;23.50;99.90;;;;;;6223235;28;87553;-70
2023/09/15 04:59:53;;;;;;;12.40;11.40;;;23.50;99.90;;;;;;6229004;28;89131;-71
2023/09/15 05:02:56;;;;;;;11.77;10.88;;;23.50;99.90;;;;;;6222998;28;89309;-71
2023/09/15 05:05:59;;;;;;;14.93;13.35;;;23.50;99.90;;;;;;6223926;28;89167;-71
2023/09/15 05:09:02;;;;;;;29.35;23.05;;;23.50;99.90;;;;;;6227415;28;89132;-69
2023/09/15 05:12:04;;;;;;;31.60;24.25;;;23.50;99.90;;;;;;6227315;28;89050;-70
2023/09/15 05:15:07;;;;;;;40.13;28.75;;;23.50;99.90;;;;;;6229664;28;89308;-69
2023/09/15 05:18:11;;;;;;;38.85;29.48;;;23.50;99.90;;;;;;6226910;28;89032;-69
2023/09/15 05:21:13;;;;;;;36.70;26.13;;;23.50;99.90;;;;;;6225416;28;89038;-69
2023/09/15 05:24:15;;;;;;;38.47;26.48;;;23.50;99.90;;;;;;6226806;28;89060;-69
2023/09/15 05:27:17;;;;;;;31.23;22.45;;;23.50;99.90;;;;;;6227834;28;88359;-69
2023/09/15 05:30:19;;;;;;;31.58;21.00;;;23.50;99.90;;;;;;6228520;28;89415;-69
2023/09/15 05:33:22;;;;;;;27.40;18.38;;;23.50;99.90;;;;;;6232778;28;89148;-69
2023/09/15 05:36:24;;;;;;;28.35;17.13;;;23.50;99.90;;;;;;6230503;28;90071;-69
2023/09/15 05:39:27;;;;;;;23.23;15.82;;;23.50;99.90;;;;;;6229192;28;89205;-68
2023/09/15 05:42:29;;;;;;;24.30;15.07;;;23.50;99.90;;;;;;6230124;28;88009;-68
2023/09/15 05:45:31;;;;;;;21.15;14.32;;;23.40;99.90;;;;;;6230216;28;89058;-68
2023/09/15 05:48:35;;;;;;;20.30;13.75;;;23.50;99.90;;;;;;6232383;28;89200;-68
2023/09/15 05:51:37;;;;;;;18.35;13.63;;;23.50;99.90;;;;;;6232339;28;89047;-68
2023/09/15 05:54:39;;;;;;;18.25;13.45;;;23.40;99.90;;;;;;6233425;28;87950;-69
2023/09/15 05:57:41;;;;;;;18.67;13.00;;;23.40;99.90;;;;;;6233289;28;87199;-68
2023/09/15 06:00:43;;;;;;;16.20;12.20;;;23.40;99.90;;;;;;6233094;28;89177;-68
2023/09/15 06:03:48;;;;;;;14.50;11.20;;;23.40;99.90;;;;;;6232167;28;89333;-69
2023/09/15 06:06:50;;;;;;;12.75;10.20;;;23.40;99.90;;;;;;6231665;28;90001;-68
2023/09/15 06:09:52;;;;;;;11.38;9.90;;;23.40;99.90;;;;;;6230446;28;89163;-68
2023/09/15 06:12:54;;;;;;;13.02;9.68;;;23.40;99.90;;;;;;6229938;28;89150;-68
2023/09/15 06:15:57;;;;;;;11.68;8.98;;;23.40;99.90;;;;;;6231785;28;89500;-68
2023/09/15 06:19:00;;;;;;;10.88;9.02;;;23.40;99.90;;;;;;6233663;28;89026;-68
2023/09/15 06:22:02;;;;;;;10.52;8.88;;;23.40;99.90;;;;;;6233043;28;88364;-69
2023/09/15 06:25:05;;;;;;;10.25;8.07;;;23.40;99.90;;;;;;6232162;28;89142;-68
2023/09/15 06:28:07;;;;;;;10.73;8.15;;;23.40;99.90;;;;;;6225483;28;86818;-69
2023/09/15 06:31:09;;;;;;;7.82;6.88;;;23.40;99.90;;;;;;6233304;28;88967;-68
2023/09/15 06:34:12;;;;;;;8.43;7.03;;;23.40;99.90;;;;;;6234264;28;88277;-69
2023/09/15 06:37:14;;;;;;;10.65;7.32;;;23.40;99.90;;;;;;6231440;28;90364;-68
2023/09/15 06:40:17;;;;;;;7.72;6.40;;;23.40;99.90;;;;;;6233162;28;89065;-68
2023/09/15 06:43:19;;;;;;;7.50;6.07;;;23.40;99.90;;;;;;6231619;28;89341;-68
2023/09/15 06:46:22;;;;;;;6.80;6.10;;;23.40;99.90;;;;;;6232386;28;89089;-68
2023/09/15 06:49:26;;;;;;;6.53;5.75;;;23.40;99.90;;;;;;6233118;28;89544;-69
2023/09/15 06:52:29;;;;;;;6.85;5.50;;;23.40;99.90;;;;;;6229359;28;89223;-68
2023/09/15 06:55:32;;;;;;;5.80;4.97;;;23.40;99.90;;;;;;6219927;28;87946;-68
2023/09/15 06:58:34;;;;;;;5.43;4.90;;;23.40;99.90;;;;;;6234028;28;88422;-68
2023/09/15 07:01:36;;;;;;;5.00;4.50;;;23.40;99.90;;;;;;6232886;28;89350;-68
2023/09/15 07:04:40;;;;;;;6.30;4.72;;;23.40;99.90;;;;;;6231979;28;88943;-69
2023/09/15 07:07:42;;;;;;;5.50;4.93;;;23.40;99.90;;;;;;6231892;28;88931;-69
2023/09/15 07:10:44;;;;;;;5.13;4.53;;;23.40;99.90;;;;;;6232689;28;89036;-68
2023/09/15 07:13:46;;;;;;;5.20;4.45;;;23.40;99.90;;;;;;6231228;28;87924;-68
2023/09/15 07:16:48;;;;;;;5.30;4.70;;;23.40;99.90;;;;;;6224694;28;90437;-68
2023/09/15 07:19:52;;;;;;;6.50;4.15;;;23.30;99.90;;;;;;6231752;28;88047;-68
2023/09/15 07:22:54;;;;;;;4.80;4.30;;;23.30;99.90;;;;;;6231449;28;88962;-68
2023/09/15 07:25:56;;;;;;;5.15;4.10;;;23.30;99.90;;;;;;6232016;28;89068;-68
2023/09/15 07:28:57;;;;;;;4.35;3.95;;;23.40;99.90;;;;;;6214520;28;87563;-68
2023/09/15 07:31:59;;;;;;;4.68;4.00;;;23.40;99.90;;;;;;6218717;28;89016;-68
2023/09/15 07:35:04;;;;;;;5.00;3.90;;;23.40;99.90;;;;;;6231334;28;89050;-68
2023/09/15 07:38:07;;;;;;;4.65;4.25;;;23.40;99.90;;;;;;6230999;28;89964;-68
2023/09/15 07:41:09;;;;;;;4.97;4.45;;;23.40;99.90;;;;;;6231579;28;89316;-68
2023/09/15 07:44:11;;;;;;;5.20;4.43;;;23.40;99.90;;;;;;6231359;28;89009;-68
2023/09/15 07:47:14;;;;;;;5.18;4.13;;;23.30;99.90;;;;;;6232473;28;88235;-68
2023/09/15 07:50:18;;;;;;;4.35;3.95;;;23.30;99.90;;;;;;6232138;28;89072;-68
2023/09/15 07:53:21;;;;;;;6.10;4.30;;;23.30;99.90;;;;;;6230885;28;88086;-68
2023/09/15 07:56:23;;;;;;;4.70;4.18;;;23.30;99.90;;;;;;6223896;28;88982;-68
2023/09/15 07:59:25;;;;;;;5.00;3.92;;;23.30;99.90;;;;;;6232330;28;88930;-68
2023/09/15 08:02:28;;;;;;;5.45;4.05;;;23.30;99.90;;;;;;6220658;28;89151;-69
2023/09/15 08:05:31;;;;;;;5.03;4.47;;;23.30;99.90;;;;;;6218949;28;89090;-69
2023/09/15 08:08:33;;;;;;;5.07;4.05;;;23.30;99.90;;;;;;6230692;28;90102;-68
2023/09/15 08:11:37;;;;;;;4.55;4.15;;;23.30;99.90;;;;;;6230735;28;89038;-69
2023/09/15 08:14:40;;;;;;;4.72;4.22;;;23.30;99.90;;;;;;6230851;28;89748;-69
2023/09/15 08:17:41;;;;;;;5.25;4.50;;;23.30;99.90;;;;;;6230822;28;89039;-69
2023/09/15 08:20:45;;;;;;;4.63;4.20;;;23.30;99.90;;;;;;6225585;28;89034;-69
2023/09/15 08:23:47;;;;;;;4.68;4.25;;;23.30;99.90;;;;;;6231493;28;89020;-68
2023/09/15 08:26:49;;;;;;;4.60;4.20;;;23.30;99.90;;;;;;6229810;28;89051;-69
2023/09/15 08:29:51;;;;;;;4.88;4.32;;;23.30;99.90;;;;;;6222752;28;88390;-68
2023/09/15 08:32:53;;;;;;;7.18;4.80;;;23.30;99.90;;;;;;6229838;28;89068;-68
2023/09/15 08:35:56;;;;;;;4.72;4.25;;;23.30;99.90;;;;;;6231512;28;88997;-69
2023/09/15 08:38:58;;;;;;;8.68;5.60;;;23.30;99.90;;;;;;6228887;28;89859;-68
2023/09/15 08:42:04;;;;;;;38.47;12.18;;;23.30;99.90;;;;;;6229466;28;88058;-69
2023/09/15 08:45:07;;;;;;;47.15;15.32;;;23.30;99.90;;;;;;6229685;28;89186;-69
2023/09/15 08:48:11;;;;;;;39.70;15.35;;;23.30;99.90;;;;;;6229640;28;89077;-68
2023/09/15 08:51:15;;;;;;;37.10;14.43;;;23.30;99.90;;;;;;6217067;28;89036;-69
2023/09/15 08:54:17;;;;;;;27.65;12.77;;;23.30;99.90;;;;;;6225207;28;88963;-69
2023/09/15 08:57:20;;;;;;;23.65;9.80;;;23.30;99.90;;;;;;6225561;28;90213;-69
2023/09/15 09:00:23;;;;;;;16.83;9.48;;;23.30;99.90;;;;;;6231007;28;88460;-69
2023/09/15 09:03:25;;;;;;;19.67;8.60;;;23.30;99.90;;;;;;6228394;28;89051;-69
2023/09/15 09:06:32;;;;;;;12.68;7.88;;;23.30;99.90;;;;;;6233250;28;89043;-69
2023/09/15 09:09:34;;;;;;;12.48;6.68;;;23.30;99.90;;;;;;6211774;28;89951;-70
2023/09/15 09:12:36;;;;;;;11.98;7.13;;;23.30;99.90;;;;;;6235003;28;89048;-69
2023/09/15 09:15:42;;;;;;;9.65;6.65;;;23.30;99.90;;;;;;6235506;28;89065;-69
2023/09/15 09:18:54;;;;;;;8.60;6.10;;;23.30;99.90;;;;;;6229765;28;88982;-69
2023/09/15 09:22:02;;;;;;;10.30;6.22;;;23.30;99.90;;;;;;6232746;28;89858;-69
2023/09/15 09:25:05;;;;;;;9.13;5.65;;;23.30;99.90;;;;;;6226019;28;89130;-69
2023/09/15 09:28:07;;;;;;;7.90;5.28;;;23.30;99.90;;;;;;6224956;28;89120;-70
2023/09/15 09:31:10;;;;;;;7.30;5.82;;;23.30;99.90;;;;;;6234308;28;87181;-69
2023/09/15 09:34:18;;;;;;;7.90;5.32;;;23.30;99.90;;;;;;6233476;28;89334;-70
2023/09/15 09:37:25;;;;;;;6.45;5.30;;;23.30;99.90;;;;;;6233632;28;89136;-69
2023/09/15 09:40:27;;;;;;;6.40;5.40;;;23.30;99.90;;;;;;6233453;28;89686;-69
2023/09/15 09:43:29;;;;;;;6.72;5.30;;;23.30;99.90;;;;;;6233717;28;89321;-69
2023/09/15 09:46:31;;;;;;;6.93;4.90;;;23.30;99.90;;;;;;6234138;28;89087;-69
2023/09/15 09:49:33;;;;;;;6.25;4.90;;;23.30;99.90;;;;;;6233981;28;89647;-69
2023/09/15 09:52:38;;;;;;;5.45;4.88;;;23.30;99.90;;;;;;6233278;28;89075;-69
2023/09/15 09:55:44;;;;;;;6.55;5.00;;;23.30;99.90;;;;;;6228781;28;89049;-69
2023/09/15 09:58:46;;;;;;;6.18;5.20;;;23.30;99.90;;;;;;6233061;28;89044;-69
2023/09/15 10:01:48;;;;;;;6.15;5.00;;;23.30;99.90;;;;;;6234278;28;88264;-69
2023/09/15 10:04:50;;;;;;;5.15;4.65;;;23.30;99.90;;;;;;6234455;28;89097;-69
2023/09/15 10:07:54;;;;;;;6.32;5.20;;;23.30;99.90;;;;;;6232585;28;89120;-69
2023/09/15 10:10:57;;;;;;;5.05;4.55;;;23.30;99.90;;;;;;6232999;28;88695;-69
2023/09/15 10:13:59;;;;;;;5.25;4.57;;;23.30;99.90;;;;;;6231019;28;89224;-69
2023/09/15 10:17:01;;;;;;;5.10;4.28;;;23.40;99.90;;;;;;6226609;28;89283;-68
2023/09/15 10:20:04;;;;;;;4.82;4.43;;;23.30;99.90;;;;;;6226536;28;89037;-69
2023/09/15 10:23:08;;;;;;;4.35;3.88;;;23.30;99.90;;;;;;6233744;28;89019;-69
2023/09/15 10:26:12;;;;;;;4.82;4.13;;;23.30;99.90;;;;;;6232632;28;89055;-69
2023/09/15 10:29:14;;;;;;;4.40;4.00;;;23.30;99.90;;;;;;6229670;28;89090;-69
2023/09/15 10:32:17;;;;;;;5.47;4.18;;;23.30;99.90;;;;;;6231646;28;88267;-69
2023/09/15 10:35:19;;;;;;;4.97;4.47;;;23.30;99.90;;;;;;6231811;28;89362;-69
2023/09/15 10:38:30;;;;;;;5.28;4.78;;;23.30;99.90;;;;;;6233308;28;89114;-68
2023/09/15 10:41:32;;;;;;;4.50;3.92;;;23.30;99.90;;;;;;6232631;28;88920;-69
2023/09/15 10:44:34;;;;;;;4.40;4.00;;;23.30;99.90;;;;;;6232548;28;89077;-70
2023/09/15 10:47:35;;;;;;;6.15;4.30;;;23.30;99.90;;;;;;6232622;28;87973;-69
2023/09/15 10:50:39;;;;;;;4.68;4.28;;;23.30;99.90;;;;;;6231892;28;89171;-69
2023/09/15 10:53:46;;;;;;;4.47;4.07;;;23.30;99.90;;;;;;6233318;28;89133;-69
2023/09/15 10:56:49;;;;;;;4.32;3.92;;;23.30;99.90;;;;;;6231974;28;89021;-69
2023/09/15 10:59:53;;;;;;;4.38;3.97;;;23.30;99.90;;;;;;6231038;28;89009;-69
2023/09/15 11:02:55;;;;;;;6.28;4.03;;;23.30;99.90;;;;;;6233326;28;88584;-69
2023/09/15 11:05:57;;;;;;;5.32;4.35;;;23.30;99.90;;;;;;6231743;28;87912;-70
2023/09/15 11:09:04;;;;;;;3.75;3.45;;;23.30;99.90;;;;;;6231735;28;89084;-69
2023/09/15 11:12:07;;;;;;;4.47;4.07;;;23.30;99.90;;;;;;6231979;28;90382;-70
2023/09/15 11:15:10;;;;;;;4.68;4.13;;;23.30;99.90;;;;;;6231398;28;89399;-69
2023/09/15 11:18:13;;;;;;;4.15;3.75;;;23.30;99.90;;;;;;6232858;28;88993;-69
2023/09/15 11:21:16;;;;;;;4.50;3.60;;;23.30;99.90;;;;;;6232911;28;89071;-70
2023/09/15 11:24:20;;;;;;;4.18;3.78;;;23.30;99.90;;;;;;6224998;28;89124;-69
2023/09/15 11:27:22;;;;;;;4.22;3.55;;;23.30;99.90;;;;;;6226033;28;89099;-70
2023/09/15 11:30:27;;;;;;;4.10;3.67;;;23.30;99.90;;;;;;6229974;28;89180;-69
2023/09/15 11:33:29;;;;;;;4.25;3.85;;;23.30;99.90;;;;;;6232505;28;87197;-70
2023/09/15 11:36:35;;;;;;;5.32;4.07;;;23.30;99.90;;;;;;6231994;28;89020;-69
2023/09/15 11:39:38;;;;;;;4.70;3.95;;;23.30;99.90;;;;;;6232048;28;90989;-69
2023/09/15 11:42:40;;;;;;;4.32;3.90;;;23.30;99.90;;;;;;6231526;28;90013;-69
2023/09/15 11:45:43;;;;;;;4.13;3.80;;;23.30;99.90;;;;;;6232107;28;89049;-70
2023/09/15 11:48:48;;;;;;;4.13;3.78;;;23.40;99.90;;;;;;6232696;28;90140;-70
2023/09/15 11:51:51;;;;;;;4.18;3.78;;;23.30;99.90;;;;;;6230724;28;89181;-69
2023/09/15 11:54:54;;;;;;;5.85;4.40;;;23.30;99.90;;;;;;6223703;28;89304;-69
2023/09/15 11:57:57;;;;;;;4.25;3.85;;;23.40;99.90;;;;;;6230953;28;89059;-69
2023/09/15 12:01:01;;;;;;;4.22;3.83;;;23.40;99.90;;;;;;6221290;28;89494;-69
2023/09/15 12:04:04;;;;;;;3.88;3.50;;;23.40;99.90;;;;;;6232051;28;87434;-69
2023/09/15 12:07:06;;;;;;;4.93;3.67;;;23.30;99.90;;;;;;6229185;28;89021;-69
2023/09/15 12:10:12;;;;;;;4.60;3.60;;;23.30;99.90;;;;;;6231429;28;89249;-69
2023/09/15 12:13:14;;;;;;;4.15;3.50;;;23.30;99.90;;;;;;6230098;28;89988;-69
2023/09/15 12:16:18;;;;;;;4.07;3.65;;;23.40;99.90;;;;;;6231688;28;88965;-69
2023/09/15 12:19:20;;;;;;;3.50;3.20;;;23.40;99.90;;;;;;6230808;28;89890;-69
2023/09/15 12:22:31;;;;;;;3.80;3.45;;;23.40;99.90;;;;;;6230924;28;88989;-69
2023/09/15 12:25:34;;;;;;;3.90;3.60;;;23.40;99.90;;;;;;6230306;28;89002;-69
2023/09/15 12:28:37;;;;;;;4.20;3.90;;;23.40;99.90;;;;;;6220002;28;88229;-69
2023/09/15 12:31:42;;;;;;;3.97;3.55;;;23.40;99.90;;;;;;6230946;28;89098;-69
2023/09/15 12:34:44;;;;;;;4.10;3.70;;;23.40;99.90;;;;;;6230944;28;88461;-69
2023/09/15 12:37:47;;;;;;;6.72;4.72;;;23.40;99.90;;;;;;6229186;28;89089;-69
2023/09/15 12:40:51;;;;;;;4.60;4.13;;;23.30;99.90;;;;;;6230586;28;89097;-69
2023/09/15 12:43:53;;;;;;;4.60;3.47;;;23.40;99.90;;;;;;6226930;28;88911;-69
2023/09/15 12:46:56;;;;;;;4.72;3.92;;;23.40;99.90;;;;;;6230265;28;87868;-69
2023/09/15 12:49:58;;;;;;;4.00;3.60;;;23.40;99.90;;;;;;6229972;28;88220;-69
2023/09/15 12:53:00;;;;;;;4.00;3.60;;;23.30;99.90;;;;;;6217723;28;89429;-69
2023/09/15 12:56:03;;;;;;;3.97;3.58;;;23.30;99.90;;;;;;6223342;28;89293;-68
2023/09/15 12:59:06;;;;;;;4.18;3.67;;;23.30;99.90;;;;;;6220507;28;89084;-69
2023/09/15 13:02:08;;;;;;;4.30;3.90;;;23.40;99.90;;;;;;6227307;28;88253;-69
2023/09/15 13:05:11;;;;;;;3.88;3.58;;;23.30;99.90;;;;;;6228509;28;87199;-69
2023/09/15 13:08:13;;;;;;;3.97;3.67;;;23.40;99.90;;;;;;6229540;28;89060;-69
2023/09/15 13:11:17;;;;;;;4.13;3.72;;;23.40;99.90;;;;;;6219897;28;89037;-69
2023/09/15 13:14:19;;;;;;;4.50;4.10;;;23.40;99.90;;;;;;6230141;28;89981;-69
2023/09/15 13:17:21;;;;;;;3.92;3.53;;;23.40;99.90;;;;;;6231285;28;89134;-69
2023/09/15 13:20:23;;;;;;;3.83;3.53;;;23.40;99.90;;;;;;6230038;28;88363;-69
2023/09/15 13:23:25;;;;;;;4.53;4.07;;;23.40;99.90;;;;;;6229410;28;89099;-69
2023/09/15 13:26:29;;;;;;;4.00;3.70;;;23.40;99.90;;;;;;6229986;28;89360;-70
2023/09/15 13:29:31;;;;;;;4.25;3.90;;;23.40;99.90;;;;;;6223801;28;89372;-69
2023/09/15 13:32:33;;;;;;;4.10;3.80;;;23.40;99.90;;;;;;6216657;28;89566;-70
2023/09/15 13:35:35;;;;;;;4.78;4.07;;;23.40;99.90;;;;;;6219618;28;87921;-69
2023/09/15 13:38:37;;;;;;;5.85;3.75;;;23.40;99.90;;;;;;6227096;28;89228;-68
2023/09/15 13:41:41;;;;;;;5.50;4.15;;;23.40;99.90;;;;;;6223824;28;89016;-69
2023/09/15 13:44:44;;;;;;;4.25;3.58;;;23.40;99.90;;;;;;6227964;28;89953;-69
2023/09/15 13:47:46;;;;;;;5.65;3.47;;;23.30;99.90;;;;;;6223165;28;89069;-69
2023/09/15 13:50:48;;;;;;;3.92;3.63;;;23.40;99.90;;;;;;6221784;28;89266;-69
2023/09/15 13:53:50;;;;;;;5.25;3.60;;;23.30;99.90;;;;;;6231192;28;89600;-69
2023/09/15 13:56:54;;;;;;;3.83;3.53;;;23.40;99.90;;;;;;6229437;28;89098;-69
2023/09/15 13:59:56;;;;;;;3.90;3.50;;;23.40;99.90;;;;;;6227328;28;89044;-69
2023/09/15 14:02:58;;;;;;;3.80;3.40;;;23.30;99.90;;;;;;6233639;28;89141;-69
2023/09/15 14:06:00;;;;;;;4.68;3.30;;;23.40;99.90;;;;;;6229813;28;87215;-70
2023/09/15 14:09:03;;;;;;;4.18;3.78;;;23.30;99.90;;;;;;6232860;28;88970;-69
2023/09/15 14:12:07;;;;;;;4.40;3.50;;;23.40;99.90;;;;;;6232559;28;89110;-69
2023/09/15 14:15:10;;;;;;;4.00;3.70;;;23.40;99.90;;;;;;6232729;28;90197;-69
2023/09/15 14:18:13;;;;;;;3.35;3.05;;;23.40;99.90;;;;;;6227975;28;89111;-69
2023/09/15 14:21:18;;;;;;;3.80;3.50;;;23.40;99.90;;;;;;6231943;28;89385;-69
2023/09/15 14:24:20;;;;;;;4.00;3.53;;;23.40;99.90;;;;;;6231860;28;89374;-69
2023/09/15 14:27:24;;;;;;;3.55;3.25;;;23.40;99.90;;;;;;6224397;28;88147;-69
2023/09/15 14:30:27;;;;;;;3.60;3.30;;;23.40;99.90;;;;;;6221088;28;88999;-69
2023/09/15 14:33:29;;;;;;;4.45;3.53;;;23.40;99.90;;;;;;6226869;28;89197;-69
2023/09/15 14:36:32;;;;;;;3.60;3.30;;;23.40;99.90;;;;;;6222412;28;88512;-69
2023/09/15 14:39:34;;;;;;;3.50;3.20;;;23.40;99.90;;;;;;6224433;28;89462;-69
2023/09/15 14:42:39;;;;;;;3.60;3.30;;;23.40;99.90;;;;;;6232720;28;89168;-69
2023/09/15 14:45:41;;;;;;;5.22;3.58;;;23.40;99.90;;;;;;6231520;28;90313;-69
2023/09/15 14:48:49;;;;;;;3.40;3.10;;;23.40;99.90;;;;;;6234018;28;89151;-69
2023/09/15 14:51:51;;;;;;;3.40;3.10;;;23.40;99.90;;;;;;6226194;28;89058;-69
2023/09/15 14:54:53;;;;;;;3.60;3.28;;;23.40;99.90;;;;;;6231138;28;89090;-69
2023/09/15 14:57:56;;;;;;;4.97;3.40;;;23.40;99.90;;;;;;6230056;28;88942;-69
2023/09/15 15:00:58;;;;;;;3.60;3.30;;;23.40;99.90;;;;;;6232464;28;89096;-71
2023/09/15 15:04:00;;;;;;;4.65;3.40;;;23.40;99.90;;;;;;6230318;28;89182;-70
2023/09/15 15:07:03;;;;;;;5.38;3.72;;;23.40;99.90;;;;;;6219900;28;88649;-71
2023/09/15 15:10:06;;;;;;;4.93;3.78;;;23.40;99.90;;;;;;6234989;28;89417;-70
2023/09/15 15:13:10;;;;;;;5.82;4.00;;;23.40;99.90;;;;;;6231100;28;89092;-72
2023/09/15 15:16:15;;;;;;;4.25;3.38;;;23.50;99.90;;;;;;6224298;28;90086;-72
2023/09/15 15:19:17;;;;;;;3.90;3.45;;;23.50;99.90;;;;;;6220447;28;89269;-72
2023/09/15 15:22:19;;;;;;;3.80;3.50;;;23.50;99.90;;;;;;6224504;28;89116;-72
2023/09/15 15:25:23;;;;;;;4.00;3.55;;;23.50;99.90;;;;;;6225995;28;87896;-72
2023/09/15 15:28:27;;;;;;;4.40;3.58;;;23.60;99.90;;;;;;6224478;28;88038;-73
2023/09/15 15:31:31;;;;;;;4.05;3.72;;;23.60;99.90;;;;;;6228887;28;89508;-69
2023/09/15 15:34:34;;;;;;;6.78;4.80;;;23.60;99.90;;;;;;6226956;28;88123;-74
2023/09/15 15:37:36;;;;;;;4.40;4.00;;;23.60;99.90;;;;;;6232900;28;88527;-74
2023/09/15 15:40:39;;;;;;;4.57;4.18;;;23.60;99.90;;;;;;6228596;28;89333;-74
2023/09/15 15:43:44;;;;;;;5.10;4.15;;;23.70;99.90;;;;;;6222193;28;88003;-75
2023/09/15 15:46:47;;;;;;;4.20;3.90;;;23.70;99.90;;;;;;6223280;28;91540;-75
2023/09/15 15:49:52;;;;;;;4.50;4.10;;;23.70;99.90;;;;;;6225972;28;88059;-76